sensor_id;sensor_type;location;lat;lon;timestamp;P1;durP1;ratioP1;P2;durP2;ratioP2
69854;SDS011;57146;48.140;16.304;2023-02-28T00:00:32;9.27;;;2.75;;
69854;SDS011;57146;48.140;16.304;2023-02-28T00:03:00;11.83;;;3.33;;
69854;SDS011;57146;48.140;16.304;2023-02-28T00:05:29;10.60;;;2.80;;
69854;SDS011;57146;48.140;16.304;2023-02-28T00:07:56;10.15;;;3.03;;
69854;SDS011;57146;48.140;16.304;2023-02-28T00:10:26;10.48;;;2.88;;
69854;SDS011;57146;48.140;16.304;2023-02-28T00:13:01;11.60;;;3.40;;
69854;SDS011;57146;48.140;16.304;2023-02-28T00:15:31;9.30;;;2.77;;
69854;SDS011;57146;48.140;16.304;2023-02-28T00:17:58;11.10;;;3.30;;
69854;SDS011;57146;48.140;16.304;2023-02-28T00:20:25;10.38;;;3.10;;
69854;SDS011;57146;48.140;16.304;2023-02-28T00:23:41;8.85;;;2.90;;
69854;SDS011;57146;48.140;16.304;2023-02-28T00:26:33;12.23;;;2.97;;
69854;SDS011;57146;48.140;16.304;2023-02-28T00:29:01;9.80;;;3.10;;
69854;SDS011;57146;48.140;16.304;2023-02-28T00:31:32;10.52;;;3.25;;
69854;SDS011;57146;48.140;16.304;2023-02-28T00:34:00;12.27;;;3.58;;
69854;SDS011;57146;48.140;16.304;2023-02-28T00:36:27;11.82;;;3.30;;
69854;SDS011;57146;48.140;16.304;2023-02-28T00:38:55;10.77;;;3.08;;
69854;SDS011;57146;48.140;16.304;2023-02-28T00:41:21;10.90;;;3.10;;
69854;SDS011;57146;48.140;16.304;2023-02-28T00:43:49;12.50;;;3.40;;
69854;SDS011;57146;48.140;16.304;2023-02-28T00:46:15;12.07;;;3.20;;
69854;SDS011;57146;48.140;16.304;2023-02-28T00:48:43;9.85;;;3.10;;
69854;SDS011;57146;48.140;16.304;2023-02-28T00:51:10;10.88;;;3.40;;
69854;SDS011;57146;48.140;16.304;2023-02-28T00:54:02;10.93;;;3.27;;
69854;SDS011;57146;48.140;16.304;2023-02-28T00:56:29;10.70;;;3.03;;
69854;SDS011;57146;48.140;16.304;2023-02-28T00:58:56;11.38;;;3.25;;
69854;SDS011;57146;48.140;16.304;2023-02-28T01:01:23;11.45;;;3.25;;
69854;SDS011;57146;48.140;16.304;2023-02-28T01:03:51;12.52;;;3.33;;
69854;SDS011;57146;48.140;16.304;2023-02-28T01:06:19;9.63;;;2.83;;
69854;SDS011;57146;48.140;16.304;2023-02-28T01:09:12;10.32;;;3.17;;
69854;SDS011;57146;48.140;16.304;2023-02-28T01:11:41;12.65;;;3.38;;
69854;SDS011;57146;48.140;16.304;2023-02-28T01:14:34;10.55;;;3.22;;
69854;SDS011;57146;48.140;16.304;2023-02-28T01:17:02;10.90;;;3.40;;
69854;SDS011;57146;48.140;16.304;2023-02-28T01:19:30;11.90;;;3.73;;
69854;SDS011;57146;48.140;16.304;2023-02-28T01:22:00;11.70;;;3.20;;
69854;SDS011;57146;48.140;16.304;2023-02-28T01:24:33;11.73;;;3.22;;
69854;SDS011;57146;48.140;16.304;2023-02-28T01:27:00;13.95;;;3.63;;
69854;SDS011;57146;48.140;16.304;2023-02-28T01:29:27;11.70;;;3.60;;
69854;SDS011;57146;48.140;16.304;2023-02-28T01:31:55;11.30;;;3.50;;
69854;SDS011;57146;48.140;16.304;2023-02-28T01:34:21;11.65;;;3.63;;
69854;SDS011;57146;48.140;16.304;2023-02-28T01:36:50;11.63;;;3.53;;
69854;SDS011;57146;48.140;16.304;2023-02-28T01:39:18;10.52;;;3.10;;
69854;SDS011;57146;48.140;16.304;2023-02-28T01:41:44;12.70;;;3.50;;
69854;SDS011;57146;48.140;16.304;2023-02-28T01:47:21;10.73;;;3.65;;
69854;SDS011;57146;48.140;16.304;2023-02-28T01:49:50;11.02;;;3.22;;
69854;SDS011;57146;48.140;16.304;2023-02-28T01:52:21;10.45;;;3.45;;
69854;SDS011;57146;48.140;16.304;2023-02-28T01:54:53;12.38;;;3.60;;
69854;SDS011;57146;48.140;16.304;2023-02-28T01:57:32;11.30;;;3.60;;
69854;SDS011;57146;48.140;16.304;2023-02-28T02:00:33;12.32;;;3.60;;
69854;SDS011;57146;48.140;16.304;2023-02-28T02:03:01;11.73;;;3.88;;
69854;SDS011;57146;48.140;16.304;2023-02-28T02:05:37;12.77;;;3.90;;
69854;SDS011;57146;48.140;16.304;2023-02-28T02:08:13;11.23;;;3.63;;
69854;SDS011;57146;48.140;16.304;2023-02-28T02:10:45;10.80;;;3.63;;
69854;SDS011;57146;48.140;16.304;2023-02-28T02:16:43;11.55;;;3.67;;
69854;SDS011;57146;48.140;16.304;2023-02-28T02:31:03;11.05;;;3.38;;
69854;SDS011;57146;48.140;16.304;2023-02-28T02:36:42;9.73;;;3.22;;
69854;SDS011;57146;48.140;16.304;2023-02-28T02:39:58;12.37;;;3.70;;
69854;SDS011;57146;48.140;16.304;2023-02-28T02:42:23;11.07;;;3.45;;
69854;SDS011;57146;48.140;16.304;2023-02-28T02:44:59;10.80;;;3.33;;
69854;SDS011;57146;48.140;16.304;2023-02-28T02:47:30;11.32;;;3.17;;
69854;SDS011;57146;48.140;16.304;2023-02-28T02:50:02;12.13;;;3.72;;
69854;SDS011;57146;48.140;16.304;2023-02-28T02:52:38;11.73;;;3.60;;
69854;SDS011;57146;48.140;16.304;2023-02-28T02:55:12;13.07;;;4.25;;
69854;SDS011;57146;48.140;16.304;2023-02-28T02:58:02;11.18;;;3.65;;
69854;SDS011;57146;48.140;16.304;2023-02-28T03:00:32;13.25;;;3.80;;
69854;SDS011;57146;48.140;16.304;2023-02-28T03:03:09;10.60;;;3.17;;
69854;SDS011;57146;48.140;16.304;2023-02-28T03:06:02;11.93;;;3.70;;
69854;SDS011;57146;48.140;16.304;2023-02-28T03:08:33;11.50;;;3.67;;
69854;SDS011;57146;48.140;16.304;2023-02-28T03:11:03;11.80;;;3.40;;
69854;SDS011;57146;48.140;16.304;2023-02-28T03:27:31;11.80;;;3.63;;
69854;SDS011;57146;48.140;16.304;2023-02-28T03:30:14;14.00;;;3.50;;
69854;SDS011;57146;48.140;16.304;2023-02-28T03:32:56;12.33;;;3.47;;
69854;SDS011;57146;48.140;16.304;2023-02-28T03:35:32;13.50;;;4.03;;
69854;SDS011;57146;48.140;16.304;2023-02-28T03:38:17;13.05;;;3.70;;
69854;SDS011;57146;48.140;16.304;2023-02-28T03:40:56;11.18;;;3.60;;
69854;SDS011;57146;48.140;16.304;2023-02-28T03:43:32;10.77;;;3.47;;
69854;SDS011;57146;48.140;16.304;2023-02-28T03:46:05;10.50;;;3.70;;
69854;SDS011;57146;48.140;16.304;2023-02-28T03:48:48;12.43;;;3.53;;
69854;SDS011;57146;48.140;16.304;2023-02-28T03:51:25;12.45;;;3.42;;
69854;SDS011;57146;48.140;16.304;2023-02-28T03:53:59;13.18;;;4.18;;
69854;SDS011;57146;48.140;16.304;2023-02-28T03:56:41;14.10;;;3.92;;
69854;SDS011;57146;48.140;16.304;2023-02-28T03:59:27;13.90;;;4.07;;
69854;SDS011;57146;48.140;16.304;2023-02-28T04:01:57;12.40;;;3.70;;
69854;SDS011;57146;48.140;16.304;2023-02-28T04:04:24;12.27;;;3.85;;
69854;SDS011;57146;48.140;16.304;2023-02-28T04:07:00;12.57;;;3.83;;
69854;SDS011;57146;48.140;16.304;2023-02-28T04:09:34;12.77;;;4.20;;
69854;SDS011;57146;48.140;16.304;2023-02-28T04:12:01;12.60;;;3.93;;
69854;SDS011;57146;48.140;16.304;2023-02-28T04:14:28;11.75;;;3.85;;
69854;SDS011;57146;48.140;16.304;2023-02-28T04:16:56;12.43;;;4.38;;
69854;SDS011;57146;48.140;16.304;2023-02-28T04:19:24;14.25;;;3.80;;
69854;SDS011;57146;48.140;16.304;2023-02-28T04:21:51;16.33;;;4.18;;
69854;SDS011;57146;48.140;16.304;2023-02-28T04:24:45;14.10;;;4.43;;
69854;SDS011;57146;48.140;16.304;2023-02-28T04:27:13;12.05;;;3.85;;
69854;SDS011;57146;48.140;16.304;2023-02-28T04:30:05;11.68;;;3.85;;
69854;SDS011;57146;48.140;16.304;2023-02-28T04:32:34;14.32;;;3.97;;
69854;SDS011;57146;48.140;16.304;2023-02-28T04:35:01;15.48;;;4.30;;
69854;SDS011;57146;48.140;16.304;2023-02-28T04:37:29;13.43;;;4.27;;
69854;SDS011;57146;48.140;16.304;2023-02-28T04:40:00;12.90;;;4.10;;
69854;SDS011;57146;48.140;16.304;2023-02-28T04:42:28;12.25;;;4.20;;
69854;SDS011;57146;48.140;16.304;2023-02-28T04:44:55;13.80;;;4.32;;
69854;SDS011;57146;48.140;16.304;2023-02-28T04:47:22;13.57;;;4.38;;
69854;SDS011;57146;48.140;16.304;2023-02-28T04:49:50;16.20;;;4.60;;
69854;SDS011;57146;48.140;16.304;2023-02-28T04:52:21;12.25;;;3.95;;
69854;SDS011;57146;48.140;16.304;2023-02-28T04:54:48;14.75;;;4.50;;
69854;SDS011;57146;48.140;16.304;2023-02-28T04:57:15;14.13;;;4.53;;
69854;SDS011;57146;48.140;16.304;2023-02-28T04:59:42;13.88;;;4.40;;
69854;SDS011;57146;48.140;16.304;2023-02-28T05:02:09;15.03;;;4.70;;
69854;SDS011;57146;48.140;16.304;2023-02-28T05:04:36;15.43;;;4.53;;
69854;SDS011;57146;48.140;16.304;2023-02-28T05:07:05;14.15;;;4.82;;
69854;SDS011;57146;48.140;16.304;2023-02-28T05:09:31;14.50;;;4.72;;
69854;SDS011;57146;48.140;16.304;2023-02-28T05:12:00;13.98;;;4.30;;
69854;SDS011;57146;48.140;16.304;2023-02-28T05:14:27;13.03;;;3.90;;
69854;SDS011;57146;48.140;16.304;2023-02-28T05:16:55;16.75;;;4.82;;
69854;SDS011;57146;48.140;16.304;2023-02-28T05:19:22;13.85;;;4.28;;
69854;SDS011;57146;48.140;16.304;2023-02-28T05:22:15;13.15;;;3.90;;
69854;SDS011;57146;48.140;16.304;2023-02-28T05:24:43;14.48;;;4.43;;
69854;SDS011;57146;48.140;16.304;2023-02-28T05:27:14;12.80;;;3.97;;
69854;SDS011;57146;48.140;16.304;2023-02-28T05:29:40;13.88;;;4.00;;
69854;SDS011;57146;48.140;16.304;2023-02-28T05:32:09;15.93;;;5.30;;
69854;SDS011;57146;48.140;16.304;2023-02-28T05:34:40;15.38;;;4.85;;
69854;SDS011;57146;48.140;16.304;2023-02-28T05:37:11;16.10;;;4.85;;
69854;SDS011;57146;48.140;16.304;2023-02-28T05:39:42;16.33;;;5.27;;
69854;SDS011;57146;48.140;16.304;2023-02-28T05:42:10;15.90;;;5.22;;
69854;SDS011;57146;48.140;16.304;2023-02-28T05:44:37;17.58;;;5.55;;
69854;SDS011;57146;48.140;16.304;2023-02-28T05:47:05;18.55;;;6.07;;
69854;SDS011;57146;48.140;16.304;2023-02-28T05:49:32;20.52;;;6.75;;
69854;SDS011;57146;48.140;16.304;2023-02-28T05:51:59;17.33;;;5.60;;
69854;SDS011;57146;48.140;16.304;2023-02-28T05:54:26;19.10;;;5.47;;
69854;SDS011;57146;48.140;16.304;2023-02-28T05:56:53;17.90;;;5.50;;
69854;SDS011;57146;48.140;16.304;2023-02-28T05:59:44;15.50;;;4.82;;
69854;SDS011;57146;48.140;16.304;2023-02-28T06:02:12;13.95;;;4.80;;
69854;SDS011;57146;48.140;16.304;2023-02-28T06:04:41;17.23;;;5.27;;
69854;SDS011;57146;48.140;16.304;2023-02-28T06:07:09;18.08;;;5.25;;
69854;SDS011;57146;48.140;16.304;2023-02-28T06:09:36;14.85;;;4.78;;
69854;SDS011;57146;48.140;16.304;2023-02-28T06:12:04;15.70;;;5.30;;
69854;SDS011;57146;48.140;16.304;2023-02-28T06:14:33;14.23;;;4.97;;
69854;SDS011;57146;48.140;16.304;2023-02-28T06:17:01;16.07;;;5.30;;
69854;SDS011;57146;48.140;16.304;2023-02-28T06:19:30;15.00;;;5.35;;
69854;SDS011;57146;48.140;16.304;2023-02-28T06:21:58;16.08;;;4.97;;
69854;SDS011;57146;48.140;16.304;2023-02-28T06:24:25;15.00;;;5.07;;
69854;SDS011;57146;48.140;16.304;2023-02-28T06:26:53;15.45;;;5.15;;
69854;SDS011;57146;48.140;16.304;2023-02-28T06:29:21;15.97;;;5.30;;
69854;SDS011;57146;48.140;16.304;2023-02-28T06:31:48;16.45;;;4.90;;
69854;SDS011;57146;48.140;16.304;2023-02-28T06:34:15;17.77;;;5.35;;
69854;SDS011;57146;48.140;16.304;2023-02-28T06:36:43;15.93;;;5.00;;
69854;SDS011;57146;48.140;16.304;2023-02-28T06:39:10;13.38;;;4.57;;
69854;SDS011;57146;48.140;16.304;2023-02-28T06:41:37;16.87;;;4.80;;
69854;SDS011;57146;48.140;16.304;2023-02-28T06:44:20;16.15;;;5.22;;
69854;SDS011;57146;48.140;16.304;2023-02-28T06:46:47;15.85;;;4.93;;
69854;SDS011;57146;48.140;16.304;2023-02-28T06:49:15;16.33;;;5.25;;
69854;SDS011;57146;48.140;16.304;2023-02-28T06:51:44;12.93;;;4.80;;
69854;SDS011;57146;48.140;16.304;2023-02-28T06:54:11;17.73;;;5.60;;
69854;SDS011;57146;48.140;16.304;2023-02-28T06:56:38;15.23;;;4.78;;
69854;SDS011;57146;48.140;16.304;2023-02-28T06:59:06;15.18;;;5.07;;
69854;SDS011;57146;48.140;16.304;2023-02-28T07:01:32;15.07;;;5.20;;
69854;SDS011;57146;48.140;16.304;2023-02-28T07:04:00;15.35;;;5.18;;
69854;SDS011;57146;48.140;16.304;2023-02-28T07:06:28;15.70;;;5.37;;
69854;SDS011;57146;48.140;16.304;2023-02-28T07:08:55;19.33;;;5.88;;
69854;SDS011;57146;48.140;16.304;2023-02-28T07:11:23;18.52;;;6.10;;
69854;SDS011;57146;48.140;16.304;2023-02-28T07:13:55;17.42;;;5.90;;
69854;SDS011;57146;48.140;16.304;2023-02-28T07:16:24;14.73;;;5.30;;
69854;SDS011;57146;48.140;16.304;2023-02-28T07:18:52;15.73;;;5.50;;
69854;SDS011;57146;48.140;16.304;2023-02-28T07:21:20;13.90;;;5.22;;
69854;SDS011;57146;48.140;16.304;2023-02-28T07:23:46;14.02;;;5.43;;
69854;SDS011;57146;48.140;16.304;2023-02-28T07:26:15;14.05;;;5.45;;
69854;SDS011;57146;48.140;16.304;2023-02-28T07:28:49;17.75;;;5.55;;
69854;SDS011;57146;48.140;16.304;2023-02-28T07:31:17;17.60;;;5.70;;
69854;SDS011;57146;48.140;16.304;2023-02-28T07:33:44;15.48;;;5.22;;
69854;SDS011;57146;48.140;16.304;2023-02-28T07:36:12;16.73;;;5.60;;
69854;SDS011;57146;48.140;16.304;2023-02-28T07:38:44;17.75;;;6.20;;
69854;SDS011;57146;48.140;16.304;2023-02-28T07:41:14;15.60;;;6.05;;
69854;SDS011;57146;48.140;16.304;2023-02-28T07:43:45;15.60;;;5.67;;
69854;SDS011;57146;48.140;16.304;2023-02-28T07:46:13;17.25;;;5.63;;
69854;SDS011;57146;48.140;16.304;2023-02-28T07:48:43;16.20;;;5.55;;
69854;SDS011;57146;48.140;16.304;2023-02-28T07:51:10;16.33;;;6.05;;
69854;SDS011;57146;48.140;16.304;2023-02-28T07:53:38;17.58;;;6.10;;
69854;SDS011;57146;48.140;16.304;2023-02-28T07:56:05;16.30;;;5.93;;
69854;SDS011;57146;48.140;16.304;2023-02-28T07:58:58;17.27;;;6.38;;
69854;SDS011;57146;48.140;16.304;2023-02-28T08:01:25;18.23;;;6.60;;
69854;SDS011;57146;48.140;16.304;2023-02-28T08:03:52;18.35;;;6.70;;
69854;SDS011;57146;48.140;16.304;2023-02-28T08:06:20;17.65;;;6.30;;
69854;SDS011;57146;48.140;16.304;2023-02-28T08:08:49;18.37;;;6.03;;
69854;SDS011;57146;48.140;16.304;2023-02-28T08:11:16;21.48;;;6.70;;
69854;SDS011;57146;48.140;16.304;2023-02-28T08:13:45;16.02;;;6.20;;
69854;SDS011;57146;48.140;16.304;2023-02-28T08:16:13;15.88;;;5.30;;
69854;SDS011;57146;48.140;16.304;2023-02-28T08:18:41;15.63;;;6.10;;
69854;SDS011;57146;48.140;16.304;2023-02-28T08:21:11;16.30;;;6.13;;
69854;SDS011;57146;48.140;16.304;2023-02-28T08:23:38;17.02;;;6.07;;
69854;SDS011;57146;48.140;16.304;2023-02-28T08:26:05;15.63;;;5.82;;
69854;SDS011;57146;48.140;16.304;2023-02-28T08:28:32;16.02;;;5.93;;
69854;SDS011;57146;48.140;16.304;2023-02-28T08:31:24;16.38;;;5.57;;
69854;SDS011;57146;48.140;16.304;2023-02-28T08:33:51;16.60;;;5.80;;
69854;SDS011;57146;48.140;16.304;2023-02-28T08:36:18;15.68;;;6.18;;
69854;SDS011;57146;48.140;16.304;2023-02-28T08:38:47;15.95;;;5.85;;
69854;SDS011;57146;48.140;16.304;2023-02-28T08:41:14;15.93;;;5.75;;
69854;SDS011;57146;48.140;16.304;2023-02-28T08:43:45;16.35;;;5.85;;
69854;SDS011;57146;48.140;16.304;2023-02-28T08:46:13;17.03;;;5.60;;
69854;SDS011;57146;48.140;16.304;2023-02-28T08:48:43;16.15;;;5.88;;
69854;SDS011;57146;48.140;16.304;2023-02-28T08:51:12;15.18;;;5.53;;
69854;SDS011;57146;48.140;16.304;2023-02-28T08:53:41;15.70;;;5.43;;
69854;SDS011;57146;48.140;16.304;2023-02-28T08:56:09;16.35;;;5.78;;
69854;SDS011;57146;48.140;16.304;2023-02-28T08:58:37;14.63;;;5.63;;
69854;SDS011;57146;48.140;16.304;2023-02-28T09:01:18;13.93;;;5.45;;
69854;SDS011;57146;48.140;16.304;2023-02-28T09:03:47;14.50;;;5.50;;
69854;SDS011;57146;48.140;16.304;2023-02-28T09:06:19;13.07;;;5.10;;
69854;SDS011;57146;48.140;16.304;2023-02-28T09:08:48;14.07;;;5.10;;
69854;SDS011;57146;48.140;16.304;2023-02-28T09:11:17;15.40;;;5.40;;
69854;SDS011;57146;48.140;16.304;2023-02-28T09:13:44;15.13;;;5.55;;
69854;SDS011;57146;48.140;16.304;2023-02-28T09:16:13;18.88;;;5.50;;
69854;SDS011;57146;48.140;16.304;2023-02-28T09:18:42;14.68;;;5.72;;
69854;SDS011;57146;48.140;16.304;2023-02-28T09:21:11;15.68;;;5.25;;
69854;SDS011;57146;48.140;16.304;2023-02-28T09:23:44;14.77;;;5.43;;
69854;SDS011;57146;48.140;16.304;2023-02-28T09:26:14;15.98;;;5.68;;
69854;SDS011;57146;48.140;16.304;2023-02-28T09:28:47;14.00;;;4.88;;
69854;SDS011;57146;48.140;16.304;2023-02-28T09:31:21;12.40;;;5.13;;
69854;SDS011;57146;48.140;16.304;2023-02-28T09:33:50;15.00;;;5.13;;
69854;SDS011;57146;48.140;16.304;2023-02-28T09:36:20;12.50;;;5.17;;
69854;SDS011;57146;48.140;16.304;2023-02-28T09:38:50;15.20;;;5.13;;
69854;SDS011;57146;48.140;16.304;2023-02-28T09:41:25;12.48;;;4.72;;
69854;SDS011;57146;48.140;16.304;2023-02-28T09:43:57;14.48;;;5.57;;
69854;SDS011;57146;48.140;16.304;2023-02-28T09:46:28;15.90;;;5.63;;
69854;SDS011;57146;48.140;16.304;2023-02-28T09:49:07;16.53;;;5.67;;
69854;SDS011;57146;48.140;16.304;2023-02-28T09:52:03;15.20;;;5.35;;
69854;SDS011;57146;48.140;16.304;2023-02-28T09:54:32;15.48;;;5.75;;
69854;SDS011;57146;48.140;16.304;2023-02-28T09:59:35;15.02;;;5.78;;
69854;SDS011;57146;48.140;16.304;2023-02-28T10:04:58;14.73;;;5.35;;
69854;SDS011;57146;48.140;16.304;2023-02-28T10:13:06;14.93;;;5.60;;
69854;SDS011;57146;48.140;16.304;2023-02-28T10:15:44;15.63;;;5.80;;
69854;SDS011;57146;48.140;16.304;2023-02-28T10:18:16;16.70;;;5.43;;
69854;SDS011;57146;48.140;16.304;2023-02-28T10:20:50;16.10;;;6.50;;
69854;SDS011;57146;48.140;16.304;2023-02-28T10:23:34;15.85;;;5.32;;
69854;SDS011;57146;48.140;16.304;2023-02-28T10:26:28;15.98;;;5.47;;
69854;SDS011;57146;48.140;16.304;2023-02-28T10:29:23;15.13;;;5.27;;
69854;SDS011;57146;48.140;16.304;2023-02-28T10:31:50;15.82;;;5.72;;
69854;SDS011;57146;48.140;16.304;2023-02-28T10:34:18;16.48;;;5.68;;
69854;SDS011;57146;48.140;16.304;2023-02-28T10:36:45;13.27;;;5.28;;
69854;SDS011;57146;48.140;16.304;2023-02-28T10:42:03;15.20;;;5.53;;
69854;SDS011;57146;48.140;16.304;2023-02-28T10:44:30;13.88;;;5.15;;
69854;SDS011;57146;48.140;16.304;2023-02-28T10:46:59;14.02;;;5.63;;
69854;SDS011;57146;48.140;16.304;2023-02-28T10:49:27;13.82;;;5.07;;
69854;SDS011;57146;48.140;16.304;2023-02-28T10:51:55;14.68;;;5.25;;
69854;SDS011;57146;48.140;16.304;2023-02-28T10:54:35;14.33;;;5.27;;
69854;SDS011;57146;48.140;16.304;2023-02-28T10:57:36;14.35;;;5.10;;
69854;SDS011;57146;48.140;16.304;2023-02-28T11:00:12;16.42;;;5.35;;
69854;SDS011;57146;48.140;16.304;2023-02-28T11:02:41;14.48;;;5.40;;
69854;SDS011;57146;48.140;16.304;2023-02-28T11:05:29;15.80;;;5.40;;
69854;SDS011;57146;48.140;16.304;2023-02-28T11:08:04;13.07;;;4.93;;
69854;SDS011;57146;48.140;16.304;2023-02-28T11:10:36;12.85;;;5.00;;
69854;SDS011;57146;48.140;16.304;2023-02-28T11:13:03;13.80;;;5.47;;
69854;SDS011;57146;48.140;16.304;2023-02-28T11:15:57;13.85;;;5.05;;
69854;SDS011;57146;48.140;16.304;2023-02-28T11:18:29;13.40;;;5.03;;
69854;SDS011;57146;48.140;16.304;2023-02-28T11:21:01;14.13;;;5.10;;
69854;SDS011;57146;48.140;16.304;2023-02-28T11:23:32;12.55;;;4.95;;
69854;SDS011;57146;48.140;16.304;2023-02-28T11:26:05;12.80;;;4.78;;
69854;SDS011;57146;48.140;16.304;2023-02-28T11:28:33;14.13;;;5.20;;
69854;SDS011;57146;48.140;16.304;2023-02-28T11:31:03;13.93;;;4.80;;
69854;SDS011;57146;48.140;16.304;2023-02-28T11:33:54;13.37;;;4.77;;
69854;SDS011;57146;48.140;16.304;2023-02-28T11:38:52;16.15;;;5.60;;
69854;SDS011;57146;48.140;16.304;2023-02-28T11:46:40;12.53;;;5.10;;
69854;SDS011;57146;48.140;16.304;2023-02-28T11:52:30;13.95;;;5.28;;
69854;SDS011;57146;48.140;16.304;2023-02-28T11:58:14;14.60;;;5.50;;
69854;SDS011;57146;48.140;16.304;2023-02-28T12:07:15;14.30;;;5.63;;
69854;SDS011;57146;48.140;16.304;2023-02-28T12:10:12;13.13;;;5.15;;
69854;SDS011;57146;48.140;16.304;2023-02-28T12:15:46;13.40;;;5.60;;
69854;SDS011;57146;48.140;16.304;2023-02-28T12:21:07;14.65;;;5.25;;
69854;SDS011;57146;48.140;16.304;2023-02-28T12:24:20;13.52;;;5.38;;
69854;SDS011;57146;48.140;16.304;2023-02-28T12:27:05;14.27;;;5.38;;
69854;SDS011;57146;48.140;16.304;2023-02-28T12:29:43;14.50;;;4.87;;
69854;SDS011;57146;48.140;16.304;2023-02-28T12:32:35;16.75;;;5.10;;
69854;SDS011;57146;48.140;16.304;2023-02-28T12:35:16;14.30;;;5.05;;
69854;SDS011;57146;48.140;16.304;2023-02-28T12:40:41;13.95;;;5.22;;
69854;SDS011;57146;48.140;16.304;2023-02-28T12:43:10;14.37;;;5.30;;
69854;SDS011;57146;48.140;16.304;2023-02-28T12:45:44;14.05;;;4.80;;
69854;SDS011;57146;48.140;16.304;2023-02-28T12:48:18;12.27;;;4.35;;
69854;SDS011;57146;48.140;16.304;2023-02-28T12:50:51;14.50;;;5.55;;
69854;SDS011;57146;48.140;16.304;2023-02-28T12:53:30;13.45;;;4.95;;
69854;SDS011;57146;48.140;16.304;2023-02-28T12:59:42;9.95;;;3.63;;
69854;SDS011;57146;48.140;16.304;2023-02-28T13:10:54;9.57;;;3.30;;
69854;SDS011;57146;48.140;16.304;2023-02-28T13:13:21;10.65;;;3.97;;
69854;SDS011;57146;48.140;16.304;2023-02-28T13:15:59;10.02;;;3.50;;
69854;SDS011;57146;48.140;16.304;2023-02-28T13:18:45;11.10;;;3.50;;
69854;SDS011;57146;48.140;16.304;2023-02-28T13:21:28;10.13;;;3.65;;
69854;SDS011;57146;48.140;16.304;2023-02-28T13:24:01;10.83;;;3.90;;
69854;SDS011;57146;48.140;16.304;2023-02-28T13:29:02;9.88;;;3.45;;
69854;SDS011;57146;48.140;16.304;2023-02-28T13:34:38;9.45;;;3.20;;
69854;SDS011;57146;48.140;16.304;2023-02-28T13:39:57;9.50;;;3.63;;
69854;SDS011;57146;48.140;16.304;2023-02-28T13:42:46;10.82;;;3.22;;
69854;SDS011;57146;48.140;16.304;2023-02-28T13:45:21;8.98;;;3.33;;
69854;SDS011;57146;48.140;16.304;2023-02-28T13:47:59;9.88;;;3.60;;
69854;SDS011;57146;48.140;16.304;2023-02-28T13:50:30;9.73;;;3.80;;
69854;SDS011;57146;48.140;16.304;2023-02-28T13:53:34;11.63;;;3.70;;
69854;SDS011;57146;48.140;16.304;2023-02-28T13:56:27;9.43;;;3.33;;
69854;SDS011;57146;48.140;16.304;2023-02-28T13:59:16;9.82;;;3.58;;
69854;SDS011;57146;48.140;16.304;2023-02-28T14:05:09;9.73;;;3.77;;
69854;SDS011;57146;48.140;16.304;2023-02-28T14:07:50;10.25;;;3.67;;
69854;SDS011;57146;48.140;16.304;2023-02-28T14:10:23;11.13;;;3.60;;
69854;SDS011;57146;48.140;16.304;2023-02-28T14:16:05;11.35;;;3.13;;
69854;SDS011;57146;48.140;16.304;2023-02-28T14:18:38;9.27;;;3.17;;
69854;SDS011;57146;48.140;16.304;2023-02-28T14:23:56;10.55;;;3.58;;
69854;SDS011;57146;48.140;16.304;2023-02-28T14:38:19;11.63;;;3.72;;
69854;SDS011;57146;48.140;16.304;2023-02-28T14:40:51;12.35;;;3.60;;
69854;SDS011;57146;48.140;16.304;2023-02-28T14:43:21;9.80;;;3.45;;
69854;SDS011;57146;48.140;16.304;2023-02-28T14:45:51;10.23;;;3.47;;
69854;SDS011;57146;48.140;16.304;2023-02-28T14:48:26;10.70;;;3.35;;
69854;SDS011;57146;48.140;16.304;2023-02-28T14:50:55;9.38;;;3.30;;
69854;SDS011;57146;48.140;16.304;2023-02-28T14:53:30;10.02;;;3.53;;
69854;SDS011;57146;48.140;16.304;2023-02-28T14:56:02;11.13;;;3.72;;
69854;SDS011;57146;48.140;16.304;2023-02-28T14:58:32;8.83;;;3.40;;
69854;SDS011;57146;48.140;16.304;2023-02-28T15:01:01;9.35;;;3.70;;
69854;SDS011;57146;48.140;16.304;2023-02-28T15:03:34;9.77;;;3.90;;
69854;SDS011;57146;48.140;16.304;2023-02-28T15:08:33;9.98;;;3.53;;
69854;SDS011;57146;48.140;16.304;2023-02-28T15:11:18;8.83;;;3.30;;
69854;SDS011;57146;48.140;16.304;2023-02-28T15:13:49;10.18;;;3.67;;
69854;SDS011;57146;48.140;16.304;2023-02-28T15:16:22;10.82;;;3.85;;
69854;SDS011;57146;48.140;16.304;2023-02-28T15:19:00;10.07;;;3.80;;
69854;SDS011;57146;48.140;16.304;2023-02-28T15:21:48;9.68;;;3.50;;
69854;SDS011;57146;48.140;16.304;2023-02-28T15:24:32;10.63;;;3.83;;
69854;SDS011;57146;48.140;16.304;2023-02-28T15:27:07;12.40;;;4.32;;
69854;SDS011;57146;48.140;16.304;2023-02-28T15:29:50;10.63;;;4.07;;
69854;SDS011;57146;48.140;16.304;2023-02-28T15:32:31;10.93;;;4.10;;
69854;SDS011;57146;48.140;16.304;2023-02-28T15:35:19;12.13;;;4.20;;
69854;SDS011;57146;48.140;16.304;2023-02-28T15:43:30;10.57;;;4.07;;
69854;SDS011;57146;48.140;16.304;2023-02-28T15:48:47;11.02;;;4.55;;
69854;SDS011;57146;48.140;16.304;2023-02-28T15:51:24;10.87;;;4.13;;
69854;SDS011;57146;48.140;16.304;2023-02-28T15:54:07;11.43;;;4.00;;
69854;SDS011;57146;48.140;16.304;2023-02-28T15:56:46;10.45;;;3.95;;
69854;SDS011;57146;48.140;16.304;2023-02-28T15:59:23;12.00;;;4.00;;
69854;SDS011;57146;48.140;16.304;2023-02-28T16:04:36;13.03;;;4.50;;
69854;SDS011;57146;48.140;16.304;2023-02-28T16:07:05;12.48;;;4.47;;
69854;SDS011;57146;48.140;16.304;2023-02-28T16:09:32;10.27;;;4.07;;
69854;SDS011;57146;48.140;16.304;2023-02-28T16:12:01;12.27;;;4.10;;
69854;SDS011;57146;48.140;16.304;2023-02-28T16:14:29;11.82;;;3.95;;
69854;SDS011;57146;48.140;16.304;2023-02-28T16:17:01;11.67;;;4.33;;
69854;SDS011;57146;48.140;16.304;2023-02-28T16:19:30;10.57;;;3.92;;
69854;SDS011;57146;48.140;16.304;2023-02-28T16:22:01;12.95;;;4.68;;
69854;SDS011;57146;48.140;16.304;2023-02-28T16:24:28;10.77;;;4.15;;
69854;SDS011;57146;48.140;16.304;2023-02-28T16:26:56;11.00;;;3.90;;
69854;SDS011;57146;48.140;16.304;2023-02-28T16:29:24;11.93;;;4.80;;
69854;SDS011;57146;48.140;16.304;2023-02-28T16:31:57;13.05;;;4.60;;
69854;SDS011;57146;48.140;16.304;2023-02-28T16:34:25;12.57;;;4.40;;
69854;SDS011;57146;48.140;16.304;2023-02-28T16:36:53;12.32;;;4.78;;
69854;SDS011;57146;48.140;16.304;2023-02-28T16:39:21;10.90;;;4.90;;
69854;SDS011;57146;48.140;16.304;2023-02-28T16:41:50;12.47;;;4.93;;
69854;SDS011;57146;48.140;16.304;2023-02-28T16:44:28;12.25;;;4.63;;
69854;SDS011;57146;48.140;16.304;2023-02-28T16:47:26;12.32;;;4.68;;
69854;SDS011;57146;48.140;16.304;2023-02-28T16:49:54;13.93;;;4.88;;
69854;SDS011;57146;48.140;16.304;2023-02-28T16:52:21;13.23;;;4.90;;
69854;SDS011;57146;48.140;16.304;2023-02-28T16:54:52;11.23;;;5.00;;
69854;SDS011;57146;48.140;16.304;2023-02-28T16:57:24;14.43;;;5.18;;
69854;SDS011;57146;48.140;16.304;2023-02-28T17:00:15;12.52;;;5.00;;
69854;SDS011;57146;48.140;16.304;2023-02-28T17:02:43;12.20;;;5.38;;
69854;SDS011;57146;48.140;16.304;2023-02-28T17:05:13;13.63;;;5.50;;
69854;SDS011;57146;48.140;16.304;2023-02-28T17:07:41;14.23;;;5.40;;
69854;SDS011;57146;48.140;16.304;2023-02-28T17:10:19;16.42;;;5.68;;